sensor_id;sensor_type;location;lat;lon;timestamp;temperature;humidity
2571;DHT22;1295;51.130;6.732;2023-12-20T00:00:36;7.60;99.90
2571;DHT22;1295;51.130;6.732;2023-12-20T00:03:00;7.60;99.90
2571;DHT22;1295;51.130;6.732;2023-12-20T00:05:26;7.60;99.90
2571;DHT22;1295;51.130;6.732;2023-12-20T00:07:52;7.70;99.90
2571;DHT22;1295;51.130;6.732;2023-12-20T00:10:17;7.70;99.90
2571;DHT22;1295;51.130;6.732;2023-12-20T00:12:43;7.70;99.90
2571;DHT22;1295;51.130;6.732;2023-12-20T00:15:09;7.70;99.90
2571;DHT22;1295;51.130;6.732;2023-12-20T00:17:34;7.70;99.90
2571;DHT22;1295;51.130;6.732;2023-12-20T00:20:00;7.70;99.90
2571;DHT22;1295;51.130;6.732;2023-12-20T00:22:26;7.60;99.90
2571;DHT22;1295;51.130;6.732;2023-12-20T00:24:52;7.60;99.90
2571;DHT22;1295;51.130;6.732;2023-12-20T00:27:18;7.60;99.90
2571;DHT22;1295;51.130;6.732;2023-12-20T00:29:43;7.50;99.90
2571;DHT22;1295;51.130;6.732;2023-12-20T00:32:09;7.50;99.90
2571;DHT22;1295;51.130;6.732;2023-12-20T00:34:34;7.60;99.90
2571;DHT22;1295;51.130;6.732;2023-12-20T00:37:00;7.60;99.90
2571;DHT22;1295;51.130;6.732;2023-12-20T00:39:26;7.60;99.90
2571;DHT22;1295;51.130;6.732;2023-12-20T00:41:51;7.60;99.90
2571;DHT22;1295;51.130;6.732;2023-12-20T00:44:17;7.60;99.90
2571;DHT22;1295;51.130;6.732;2023-12-20T00:46:43;7.60;99.90
2571;DHT22;1295;51.130;6.732;2023-12-20T00:49:08;7.60;99.90
2571;DHT22;1295;51.130;6.732;2023-12-20T00:51:34;7.50;99.90
2571;DHT22;1295;51.130;6.732;2023-12-20T00:53:59;7.50;99.90
2571;DHT22;1295;51.130;6.732;2023-12-20T00:56:25;7.60;99.90
2571;DHT22;1295;51.130;6.732;2023-12-20T00:58:51;7.50;99.90
2571;DHT22;1295;51.130;6.732;2023-12-20T01:01:17;7.60;99.90
2571;DHT22;1295;51.130;6.732;2023-12-20T01:03:43;7.50;99.90
2571;DHT22;1295;51.130;6.732;2023-12-20T01:06:08;7.40;99.90
2571;DHT22;1295;51.130;6.732;2023-12-20T01:08:34;7.40;99.90
2571;DHT22;1295;51.130;6.732;2023-12-20T01:11:00;7.40;99.90
2571;DHT22;1295;51.130;6.732;2023-12-20T01:13:25;7.50;99.90
2571;DHT22;1295;51.130;6.732;2023-12-20T01:15:51;7.40;99.90
2571;DHT22;1295;51.130;6.732;2023-12-20T01:18:16;7.50;99.90
2571;DHT22;1295;51.130;6.732;2023-12-20T01:20:42;7.50;99.90
2571;DHT22;1295;51.130;6.732;2023-12-20T01:23:08;7.50;99.90
2571;DHT22;1295;51.130;6.732;2023-12-20T01:25:34;7.40;99.90
2571;DHT22;1295;51.130;6.732;2023-12-20T01:28:07;7.40;99.90
2571;DHT22;1295;51.130;6.732;2023-12-20T01:30:33;7.40;99.90
2571;DHT22;1295;51.130;6.732;2023-12-20T01:33:00;7.50;99.90
2571;DHT22;1295;51.130;6.732;2023-12-20T01:35:26;7.40;99.90
2571;DHT22;1295;51.130;6.732;2023-12-20T01:37:52;7.40;99.90
2571;DHT22;1295;51.130;6.732;2023-12-20T01:40:18;7.40;99.90
2571;DHT22;1295;51.130;6.732;2023-12-20T01:42:43;7.40;99.90
2571;DHT22;1295;51.130;6.732;2023-12-20T01:45:09;7.30;99.90
2571;DHT22;1295;51.130;6.732;2023-12-20T01:47:35;7.40;99.90
2571;DHT22;1295;51.130;6.732;2023-12-20T01:50:00;7.40;99.90
2571;DHT22;1295;51.130;6.732;2023-12-20T01:52:27;7.20;99.90
2571;DHT22;1295;51.130;6.732;2023-12-20T01:54:52;7.20;99.90
2571;DHT22;1295;51.130;6.732;2023-12-20T01:57:18;7.10;99.90
2571;DHT22;1295;51.130;6.732;2023-12-20T01:59:45;7.30;99.90
2571;DHT22;1295;51.130;6.732;2023-12-20T02:02:11;7.30;99.90
2571;DHT22;1295;51.130;6.732;2023-12-20T02:04:37;7.30;99.90
2571;DHT22;1295;51.130;6.732;2023-12-20T02:07:03;7.10;99.90
2571;DHT22;1295;51.130;6.732;2023-12-20T02:09:29;7.10;99.90
2571;DHT22;1295;51.130;6.732;2023-12-20T02:11:54;7.10;99.90
2571;DHT22;1295;51.130;6.732;2023-12-20T02:14:21;6.90;99.90
2571;DHT22;1295;51.130;6.732;2023-12-20T02:16:46;6.80;99.90
2571;DHT22;1295;51.130;6.732;2023-12-20T02:19:13;7.10;99.90
2571;DHT22;1295;51.130;6.732;2023-12-20T02:21:38;6.90;99.90
2571;DHT22;1295;51.130;6.732;2023-12-20T02:24:04;6.80;99.90
2571;DHT22;1295;51.130;6.732;2023-12-20T02:26:31;6.80;99.90
2571;DHT22;1295;51.130;6.732;2023-12-20T02:28:55;6.70;99.90
2571;DHT22;1295;51.130;6.732;2023-12-20T02:31:21;6.70;99.90
2571;DHT22;1295;51.130;6.732;2023-12-20T02:33:47;6.70;99.90
2571;DHT22;1295;51.130;6.732;2023-12-20T02:36:12;6.70;99.90
2571;DHT22;1295;51.130;6.732;2023-12-20T02:38:38;6.60;99.90
2571;DHT22;1295;51.130;6.732;2023-12-20T02:41:03;6.90;99.90
2571;DHT22;1295;51.130;6.732;2023-12-20T02:43:29;6.70;99.90
2571;DHT22;1295;51.130;6.732;2023-12-20T02:45:55;6.70;99.90
2571;DHT22;1295;51.130;6.732;2023-12-20T02:48:20;6.80;99.90
2571;DHT22;1295;51.130;6.732;2023-12-20T02:50:46;6.80;99.90
2571;DHT22;1295;51.130;6.732;2023-12-20T02:53:12;6.60;99.90
2571;DHT22;1295;51.130;6.732;2023-12-20T02:55:44;6.60;99.90
2571;DHT22;1295;51.130;6.732;2023-12-20T02:58:10;6.70;99.90
2571;DHT22;1295;51.130;6.732;2023-12-20T03:00:35;6.80;99.90
2571;DHT22;1295;51.130;6.732;2023-12-20T03:03:01;6.70;99.90
2571;DHT22;1295;51.130;6.732;2023-12-20T03:05:27;6.60;99.90
2571;DHT22;1295;51.130;6.732;2023-12-20T03:07:52;6.60;99.90
2571;DHT22;1295;51.130;6.732;2023-12-20T03:10:18;6.70;99.90
2571;DHT22;1295;51.130;6.732;2023-12-20T03:12:44;6.60;99.90
2571;DHT22;1295;51.130;6.732;2023-12-20T03:15:10;6.60;99.90
2571;DHT22;1295;51.130;6.732;2023-12-20T03:17:36;6.60;99.90
2571;DHT22;1295;51.130;6.732;2023-12-20T03:20:02;6.60;99.90
2571;DHT22;1295;51.130;6.732;2023-12-20T03:22:27;6.60;99.90
2571;DHT22;1295;51.130;6.732;2023-12-20T03:24:53;6.60;99.90
2571;DHT22;1295;51.130;6.732;2023-12-20T03:27:19;6.60;99.90
2571;DHT22;1295;51.130;6.732;2023-12-20T03:29:45;6.60;99.90
2571;DHT22;1295;51.130;6.732;2023-12-20T03:32:10;6.60;99.90
2571;DHT22;1295;51.130;6.732;2023-12-20T03:34:36;6.60;99.90
2571;DHT22;1295;51.130;6.732;2023-12-20T03:37:02;6.50;99.90
2571;DHT22;1295;51.130;6.732;2023-12-20T03:39:27;6.30;99.90
2571;DHT22;1295;51.130;6.732;2023-12-20T03:41:53;6.50;99.90
2571;DHT22;1295;51.130;6.732;2023-12-20T03:44:19;6.60;99.90
2571;DHT22;1295;51.130;6.732;2023-12-20T03:46:45;6.60;99.90
2571;DHT22;1295;51.130;6.732;2023-12-20T03:49:11;6.40;99.90
2571;DHT22;1295;51.130;6.732;2023-12-20T03:51:36;6.30;99.90
2571;DHT22;1295;51.130;6.732;2023-12-20T03:54:02;6.60;99.90
2571;DHT22;1295;51.130;6.732;2023-12-20T03:56:28;6.60;99.90
2571;DHT22;1295;51.130;6.732;2023-12-20T03:58:53;6.50;99.90
2571;DHT22;1295;51.130;6.732;2023-12-20T04:01:19;6.40;99.90
2571;DHT22;1295;51.130;6.732;2023-12-20T04:03:44;6.40;99.90
2571;DHT22;1295;51.130;6.732;2023-12-20T04:06:10;6.30;99.90
2571;DHT22;1295;51.130;6.732;2023-12-20T04:08:36;6.30;99.90
2571;DHT22;1295;51.130;6.732;2023-12-20T04:11:01;6.20;99.90
2571;DHT22;1295;51.130;6.732;2023-12-20T04:13:27;6.30;99.90
2571;DHT22;1295;51.130;6.732;2023-12-20T04:15:53;6.40;99.90
2571;DHT22;1295;51.130;6.732;2023-12-20T04:18:18;6.50;99.90
2571;DHT22;1295;51.130;6.732;2023-12-20T04:20:44;6.50;99.90
2571;DHT22;1295;51.130;6.732;2023-12-20T04:23:10;6.40;99.90
2571;DHT22;1295;51.130;6.732;2023-12-20T04:25:36;6.40;99.90
2571;DHT22;1295;51.130;6.732;2023-12-20T04:28:02;6.40;99.90
2571;DHT22;1295;51.130;6.732;2023-12-20T04:30:35;6.50;99.90
2571;DHT22;1295;51.130;6.732;2023-12-20T04:33:00;6.50;99.90
2571;DHT22;1295;51.130;6.732;2023-12-20T04:35:26;6.70;99.90
2571;DHT22;1295;51.130;6.732;2023-12-20T04:37:52;6.50;99.90
2571;DHT22;1295;51.130;6.732;2023-12-20T04:40:18;6.60;99.90
2571;DHT22;1295;51.130;6.732;2023-12-20T04:42:51;6.60;99.90
2571;DHT22;1295;51.130;6.732;2023-12-20T04:45:16;6.60;99.90
2571;DHT22;1295;51.130;6.732;2023-12-20T04:47:42;6.50;99.90
2571;DHT22;1295;51.130;6.732;2023-12-20T04:50:08;6.50;99.90
2571;DHT22;1295;51.130;6.732;2023-12-20T04:52:34;6.50;99.90
2571;DHT22;1295;51.130;6.732;2023-12-20T04:54:59;6.60;99.90
2571;DHT22;1295;51.130;6.732;2023-12-20T04:57:25;6.30;99.90
2571;DHT22;1295;51.130;6.732;2023-12-20T04:59:50;6.40;99.90
2571;DHT22;1295;51.130;6.732;2023-12-20T05:02:16;6.40;99.90
2571;DHT22;1295;51.130;6.732;2023-12-20T05:04:42;6.20;99.90
2571;DHT22;1295;51.130;6.732;2023-12-20T05:07:07;6.30;99.90
2571;DHT22;1295;51.130;6.732;2023-12-20T05:09:34;6.30;99.90
2571;DHT22;1295;51.130;6.732;2023-12-20T05:11:59;6.30;99.90
2571;DHT22;1295;51.130;6.732;2023-12-20T05:14:25;6.30;99.90
2571;DHT22;1295;51.130;6.732;2023-12-20T05:16:51;6.40;99.90
2571;DHT22;1295;51.130;6.732;2023-12-20T05:19:16;6.50;99.90
2571;DHT22;1295;51.130;6.732;2023-12-20T05:21:42;6.20;99.90
2571;DHT22;1295;51.130;6.732;2023-12-20T05:24:08;6.30;99.90
2571;DHT22;1295;51.130;6.732;2023-12-20T05:26:34;6.30;99.90
2571;DHT22;1295;51.130;6.732;2023-12-20T05:28:59;6.30;99.90
2571;DHT22;1295;51.130;6.732;2023-12-20T05:31:25;6.40;99.90
2571;DHT22;1295;51.130;6.732;2023-12-20T05:33:51;6.30;99.90
2571;DHT22;1295;51.130;6.732;2023-12-20T05:36:16;6.40;99.90
2571;DHT22;1295;51.130;6.732;2023-12-20T05:38:42;6.30;99.90
2571;DHT22;1295;51.130;6.732;2023-12-20T05:41:07;6.40;99.90
2571;DHT22;1295;51.130;6.732;2023-12-20T05:43:33;6.30;99.90
2571;DHT22;1295;51.130;6.732;2023-12-20T05:45:59;6.30;99.90
2571;DHT22;1295;51.130;6.732;2023-12-20T05:48:25;6.40;99.90
2571;DHT22;1295;51.130;6.732;2023-12-20T05:50:51;6.40;99.90
2571;DHT22;1295;51.130;6.732;2023-12-20T05:56:08;6.40;99.90
2571;DHT22;1295;51.130;6.732;2023-12-20T05:58:34;6.30;99.90
2571;DHT22;1295;51.130;6.732;2023-12-20T06:01:00;6.30;99.90
2571;DHT22;1295;51.130;6.732;2023-12-20T06:03:26;6.30;99.90
2571;DHT22;1295;51.130;6.732;2023-12-20T06:05:51;6.30;99.90
2571;DHT22;1295;51.130;6.732;2023-12-20T06:08:17;6.30;99.90
2571;DHT22;1295;51.130;6.732;2023-12-20T06:10:43;6.30;99.90
2571;DHT22;1295;51.130;6.732;2023-12-20T06:13:08;6.30;99.90
2571;DHT22;1295;51.130;6.732;2023-12-20T06:15:34;6.30;99.90
2571;DHT22;1295;51.130;6.732;2023-12-20T06:17:59;6.30;99.90
2571;DHT22;1295;51.130;6.732;2023-12-20T06:20:26;6.30;99.90
2571;DHT22;1295;51.130;6.732;2023-12-20T06:22:51;6.30;99.90
2571;DHT22;1295;51.130;6.732;2023-12-20T06:25:16;6.30;99.90
2571;DHT22;1295;51.130;6.732;2023-12-20T06:27:42;6.40;99.90
2571;DHT22;1295;51.130;6.732;2023-12-20T06:30:09;6.30;99.90
2571;DHT22;1295;51.130;6.732;2023-12-20T06:32:36;6.40;99.90
2571;DHT22;1295;51.130;6.732;2023-12-20T06:35:01;6.30;99.90
2571;DHT22;1295;51.130;6.732;2023-12-20T06:37:27;6.30;99.90
2571;DHT22;1295;51.130;6.732;2023-12-20T06:39:53;6.40;99.90
2571;DHT22;1295;51.130;6.732;2023-12-20T06:42:18;6.30;99.90
2571;DHT22;1295;51.130;6.732;2023-12-20T06:44:44;6.40;99.90
2571;DHT22;1295;51.130;6.732;2023-12-20T06:47:10;6.50;99.90
2571;DHT22;1295;51.130;6.732;2023-12-20T06:49:35;6.40;99.90
2571;DHT22;1295;51.130;6.732;2023-12-20T06:52:01;6.40;99.90
2571;DHT22;1295;51.130;6.732;2023-12-20T06:54:27;6.40;99.90
2571;DHT22;1295;51.130;6.732;2023-12-20T06:56:52;6.40;99.90
2571;DHT22;1295;51.130;6.732;2023-12-20T06:59:19;6.40;99.90
2571;DHT22;1295;51.130;6.732;2023-12-20T07:01:47;6.40;99.90
2571;DHT22;1295;51.130;6.732;2023-12-20T07:04:10;6.40;99.90
2571;DHT22;1295;51.130;6.732;2023-12-20T07:06:35;6.50;99.90
2571;DHT22;1295;51.130;6.732;2023-12-20T07:09:01;6.50;99.90
2571;DHT22;1295;51.130;6.732;2023-12-20T07:11:27;6.40;99.90
2571;DHT22;1295;51.130;6.732;2023-12-20T07:13:52;6.50;99.90
2571;DHT22;1295;51.130;6.732;2023-12-20T07:16:18;6.50;99.90
2571;DHT22;1295;51.130;6.732;2023-12-20T07:18:44;6.40;99.90
2571;DHT22;1295;51.130;6.732;2023-12-20T07:21:09;6.50;99.90
2571;DHT22;1295;51.130;6.732;2023-12-20T07:23:35;6.40;99.90
2571;DHT22;1295;51.130;6.732;2023-12-20T07:26:01;6.50;99.90
2571;DHT22;1295;51.130;6.732;2023-12-20T07:28:26;6.40;99.90
2571;DHT22;1295;51.130;6.732;2023-12-20T07:30:52;6.50;99.90
2571;DHT22;1295;51.130;6.732;2023-12-20T07:33:18;6.40;99.90
2571;DHT22;1295;51.130;6.732;2023-12-20T07:35:44;6.40;99.90
2571;DHT22;1295;51.130;6.732;2023-12-20T07:38:10;6.40;99.90
2571;DHT22;1295;51.130;6.732;2023-12-20T07:40:35;6.40;99.90
2571;DHT22;1295;51.130;6.732;2023-12-20T07:43:01;6.40;99.90
2571;DHT22;1295;51.130;6.732;2023-12-20T07:45:27;6.40;99.90
2571;DHT22;1295;51.130;6.732;2023-12-20T07:47:52;6.50;99.90
2571;DHT22;1295;51.130;6.732;2023-12-20T07:50:18;6.70;99.90
2571;DHT22;1295;51.130;6.732;2023-12-20T07:52:43;6.50;99.90
2571;DHT22;1295;51.130;6.732;2023-12-20T07:55:09;6.50;99.90
2571;DHT22;1295;51.130;6.732;2023-12-20T07:57:36;6.40;99.90
2571;DHT22;1295;51.130;6.732;2023-12-20T08:00:02;6.40;99.90
2571;DHT22;1295;51.130;6.732;2023-12-20T08:02:27;6.50;99.90
2571;DHT22;1295;51.130;6.732;2023-12-20T08:04:53;6.50;99.90
2571;DHT22;1295;51.130;6.732;2023-12-20T08:07:19;6.50;99.90
2571;DHT22;1295;51.130;6.732;2023-12-20T08:09:45;6.40;99.90
2571;DHT22;1295;51.130;6.732;2023-12-20T08:12:11;6.40;99.90
2571;DHT22;1295;51.130;6.732;2023-12-20T08:14:36;6.50;99.90
2571;DHT22;1295;51.130;6.732;2023-12-20T08:17:02;6.60;99.90
2571;DHT22;1295;51.130;6.732;2023-12-20T08:19:28;6.50;99.90
2571;DHT22;1295;51.130;6.732;2023-12-20T08:21:54;6.50;99.90
2571;DHT22;1295;51.130;6.732;2023-12-20T08:24:20;6.50;99.90
2571;DHT22;1295;51.130;6.732;2023-12-20T08:26:45;6.40;99.90
2571;DHT22;1295;51.130;6.732;2023-12-20T08:29:12;6.50;99.90
2571;DHT22;1295;51.130;6.732;2023-12-20T08:31:38;6.50;99.90
2571;DHT22;1295;51.130;6.732;2023-12-20T08:34:04;6.50;99.90
2571;DHT22;1295;51.130;6.732;2023-12-20T08:36:29;6.40;99.90
2571;DHT22;1295;51.130;6.732;2023-12-20T08:38:55;6.50;99.90
2571;DHT22;1295;51.130;6.732;2023-12-20T08:41:21;6.50;99.90
2571;DHT22;1295;51.130;6.732;2023-12-20T08:43:46;6.50;99.90
2571;DHT22;1295;51.130;6.732;2023-12-20T08:46:13;6.50;99.90
2571;DHT22;1295;51.130;6.732;2023-12-20T08:48:38;6.40;99.90
2571;DHT22;1295;51.130;6.732;2023-12-20T08:51:04;6.40;99.90
2571;DHT22;1295;51.130;6.732;2023-12-20T08:53:30;6.40;99.90
2571;DHT22;1295;51.130;6.732;2023-12-20T08:55:55;6.60;99.90
2571;DHT22;1295;51.130;6.732;2023-12-20T08:58:22;6.40;99.90
2571;DHT22;1295;51.130;6.732;2023-12-20T09:00:52;6.40;99.90
2571;DHT22;1295;51.130;6.732;2023-12-20T09:03:29;6.40;99.90
2571;DHT22;1295;51.130;6.732;2023-12-20T09:05:56;6.40;99.90
2571;DHT22;1295;51.130;6.732;2023-12-20T09:08:21;6.40;99.90
2571;DHT22;1295;51.130;6.732;2023-12-20T09:10:47;6.40;99.90
2571;DHT22;1295;51.130;6.732;2023-12-20T09:13:13;6.40;99.90
2571;DHT22;1295;51.130;6.732;2023-12-20T09:15:39;6.40;99.90
2571;DHT22;1295;51.130;6.732;2023-12-20T09:18:05;6.40;99.90
2571;DHT22;1295;51.130;6.732;2023-12-20T09:20:31;6.50;99.90
2571;DHT22;1295;51.130;6.732;2023-12-20T09:22:56;6.50;99.90
2571;DHT22;1295;51.130;6.732;2023-12-20T09:25:23;6.50;99.90
2571;DHT22;1295;51.130;6.732;2023-12-20T09:27:48;6.40;99.90
2571;DHT22;1295;51.130;6.732;2023-12-20T09:30:14;6.50;99.90
2571;DHT22;1295;51.130;6.732;2023-12-20T09:32:40;6.50;99.90
2571;DHT22;1295;51.130;6.732;2023-12-20T09:35:06;6.60;99.90
2571;DHT22;1295;51.130;6.732;2023-12-20T09:37:32;6.50;99.90
2571;DHT22;1295;51.130;6.732;2023-12-20T09:39:58;6.50;99.90
2571;DHT22;1295;51.130;6.732;2023-12-20T09:42:32;6.60;99.90
2571;DHT22;1295;51.130;6.732;2023-12-20T09:44:50;6.60;99.90
2571;DHT22;1295;51.130;6.732;2023-12-20T09:47:16;6.50;99.90
2571;DHT22;1295;51.130;6.732;2023-12-20T09:49:41;6.50;99.90
2571;DHT22;1295;51.130;6.732;2023-12-20T09:52:08;6.50;99.90
2571;DHT22;1295;51.130;6.732;2023-12-20T09:54:33;6.50;99.90
2571;DHT22;1295;51.130;6.732;2023-12-20T09:56:59;6.50;99.90
2571;DHT22;1295;51.130;6.732;2023-12-20T09:59:25;6.60;99.90
2571;DHT22;1295;51.130;6.732;2023-12-20T10:01:50;6.50;99.90
2571;DHT22;1295;51.130;6.732;2023-12-20T10:04:16;6.50;99.90
2571;DHT22;1295;51.130;6.732;2023-12-20T10:06:42;6.50;99.90
2571;DHT22;1295;51.130;6.732;2023-12-20T10:09:08;6.50;99.90
2571;DHT22;1295;51.130;6.732;2023-12-20T10:11:36;6.50;99.90
2571;DHT22;1295;51.130;6.732;2023-12-20T10:14:01;6.50;99.90
2571;DHT22;1295;51.130;6.732;2023-12-20T10:16:27;6.60;99.90
2571;DHT22;1295;51.130;6.732;2023-12-20T10:18:54;6.60;99.90
2571;DHT22;1295;51.130;6.732;2023-12-20T10:21:19;6.60;99.90
2571;DHT22;1295;51.130;6.732;2023-12-20T10:23:45;6.60;99.90
2571;DHT22;1295;51.130;6.732;2023-12-20T10:26:19;6.60;99.90
2571;DHT22;1295;51.130;6.732;2023-12-20T10:28:38;6.60;99.90
2571;DHT22;1295;51.130;6.732;2023-12-20T10:31:04;6.50;99.90
2571;DHT22;1295;51.130;6.732;2023-12-20T10:33:30;6.60;99.90
2571;DHT22;1295;51.130;6.732;2023-12-20T10:35:56;6.60;99.90
2571;DHT22;1295;51.130;6.732;2023-12-20T10:38:21;6.60;99.90
2571;DHT22;1295;51.130;6.732;2023-12-20T10:40:47;6.70;99.90
2571;DHT22;1295;51.130;6.732;2023-12-20T10:43:13;6.60;99.90
2571;DHT22;1295;51.130;6.732;2023-12-20T10:45:39;6.60;99.90
2571;DHT22;1295;51.130;6.732;2023-12-20T10:48:05;6.60;99.90
2571;DHT22;1295;51.130;6.732;2023-12-20T10:50:32;6.60;99.90
2571;DHT22;1295;51.130;6.732;2023-12-20T10:52:58;6.60;99.90
2571;DHT22;1295;51.130;6.732;2023-12-20T10:55:23;6.60;99.90
2571;DHT22;1295;51.130;6.732;2023-12-20T10:57:51;6.60;99.90
2571;DHT22;1295;51.130;6.732;2023-12-20T11:00:17;6.60;99.90
2571;DHT22;1295;51.130;6.732;2023-12-20T11:02:42;6.70;99.90
2571;DHT22;1295;51.130;6.732;2023-12-20T11:07:57;6.70;99.90
2571;DHT22;1295;51.130;6.732;2023-12-20T11:10:22;6.70;99.90
2571;DHT22;1295;51.130;6.732;2023-12-20T11:12:52;6.70;99.90
2571;DHT22;1295;51.130;6.732;2023-12-20T11:15:14;6.70;99.90
2571;DHT22;1295;51.130;6.732;2023-12-20T11:17:40;6.70;99.90
2571;DHT22;1295;51.130;6.732;2023-12-20T11:20:07;6.80;99.90
2571;DHT22;1295;51.130;6.732;2023-12-20T11:22:33;6.80;99.90
2571;DHT22;1295;51.130;6.732;2023-12-20T11:25:08;6.80;99.90
2571;DHT22;1295;51.130;6.732;2023-12-20T11:27:33;6.80;99.90
2571;DHT22;1295;51.130;6.732;2023-12-20T11:29:59;6.80;99.90
2571;DHT22;1295;51.130;6.732;2023-12-20T11:32:28;6.70;99.90
2571;DHT22;1295;51.130;6.732;2023-12-20T11:35:18;6.70;99.90
2571;DHT22;1295;51.130;6.732;2023-12-20T11:37:44;6.70;99.90
2571;DHT22;1295;51.130;6.732;2023-12-20T11:40:11;6.80;99.90
2571;DHT22;1295;51.130;6.732;2023-12-20T11:42:39;6.80;99.90
2571;DHT22;1295;51.130;6.732;2023-12-20T11:45:08;6.70;99.90
2571;DHT22;1295;51.130;6.732;2023-12-20T11:47:34;6.80;99.90
2571;DHT22;1295;51.130;6.732;2023-12-20T11:49:59;6.70;99.90
2571;DHT22;1295;51.130;6.732;2023-12-20T11:52:25;6.80;99.90
2571;DHT22;1295;51.130;6.732;2023-12-20T11:54:50;6.70;99.90
2571;DHT22;1295;51.130;6.732;2023-12-20T11:57:17;6.70;99.90
2571;DHT22;1295;51.130;6.732;2023-12-20T11:59:43;6.70;99.90
2571;DHT22;1295;51.130;6.732;2023-12-20T12:02:11;6.80;99.90
2571;DHT22;1295;51.130;6.732;2023-12-20T12:04:35;6.80;99.90
2571;DHT22;1295;51.130;6.732;2023-12-20T12:07:00;6.80;99.90
2571;DHT22;1295;51.130;6.732;2023-12-20T12:09:26;6.80;99.90
2571;DHT22;1295;51.130;6.732;2023-12-20T12:11:52;6.80;99.90
2571;DHT22;1295;51.130;6.732;2023-12-20T12:14:17;6.80;99.90
2571;DHT22;1295;51.130;6.732;2023-12-20T12:16:44;6.80;99.90
2571;DHT22;1295;51.130;6.732;2023-12-20T12:19:19;6.80;99.90
2571;DHT22;1295;51.130;6.732;2023-12-20T12:21:35;6.80;99.90
2571;DHT22;1295;51.130;6.732;2023-12-20T12:24:07;6.80;99.90
2571;DHT22;1295;51.130;6.732;2023-12-20T12:26:32;6.80;99.90
2571;DHT22;1295;51.130;6.732;2023-12-20T12:28:57;6.80;99.90
2571;DHT22;1295;51.130;6.732;2023-12-20T12:31:23;6.80;99.90
2571;DHT22;1295;51.130;6.732;2023-12-20T12:33:49;6.80;99.90
2571;DHT22;1295;51.130;6.732;2023-12-20T12:36:14;6.80;99.90
2571;DHT22;1295;51.130;6.732;2023-12-20T12:38:41;6.80;99.90
2571;DHT22;1295;51.130;6.732;2023-12-20T12:41:06;6.80;99.90
2571;DHT22;1295;51.130;6.732;2023-12-20T12:43:31;6.80;99.90
2571;DHT22;1295;51.130;6.732;2023-12-20T12:45:57;6.80;99.90
2571;DHT22;1295;51.130;6.732;2023-12-20T12:48:23;6.80;99.90
2571;DHT22;1295;51.130;6.732;2023-12-20T12:50:49;6.80;99.90
2571;DHT22;1295;51.130;6.732;2023-12-20T12:53:14;6.80;99.90
2571;DHT22;1295;51.130;6.732;2023-12-20T12:55:40;6.80;99.90
2571;DHT22;1295;51.130;6.732;2023-12-20T12:58:06;6.80;99.90
2571;DHT22;1295;51.130;6.732;2023-12-20T13:00:31;6.90;99.90
2571;DHT22;1295;51.130;6.732;2023-12-20T13:02:57;6.80;99.90
2571;DHT22;1295;51.130;6.732;2023-12-20T13:05:23;6.80;99.90
2571;DHT22;1295;51.130;6.732;2023-12-20T13:07:48;6.90;99.90
2571;DHT22;1295;51.130;6.732;2023-12-20T13:10:14;6.90;99.90
2571;DHT22;1295;51.130;6.732;2023-12-20T13:12:40;6.80;99.90
2571;DHT22;1295;51.130;6.732;2023-12-20T13:15:07;6.80;99.90
2571;DHT22;1295;51.130;6.732;2023-12-20T13:17:32;6.80;99.90
2571;DHT22;1295;51.130;6.732;2023-12-20T13:19:58;6.80;99.90
2571;DHT22;1295;51.130;6.732;2023-12-20T13:22:24;6.90;99.90
2571;DHT22;1295;51.130;6.732;2023-12-20T13:24:49;6.90;99.90
2571;DHT22;1295;51.130;6.732;2023-12-20T13:27:15;6.90;99.90
2571;DHT22;1295;51.130;6.732;2023-12-20T13:29:41;6.80;99.90
2571;DHT22;1295;51.130;6.732;2023-12-20T13:32:07;6.80;99.90
2571;DHT22;1295;51.130;6.732;2023-12-20T13:34:33;6.90;99.90
2571;DHT22;1295;51.130;6.732;2023-12-20T13:36:58;6.90;99.90
2571;DHT22;1295;51.130;6.732;2023-12-20T13:39:24;6.90;99.90
2571;DHT22;1295;51.130;6.732;2023-12-20T13:41:50;6.90;99.90
2571;DHT22;1295;51.130;6.732;2023-12-20T13:44:15;6.90;99.90
2571;DHT22;1295;51.130;6.732;2023-12-20T13:46:41;6.90;99.90
2571;DHT22;1295;51.130;6.732;2023-12-20T13:49:07;6.90;99.90
2571;DHT22;1295;51.130;6.732;2023-12-20T13:51:32;6.90;99.90
2571;DHT22;1295;51.130;6.732;2023-12-20T13:53:58;6.90;99.90
2571;DHT22;1295;51.130;6.732;2023-12-20T13:56:23;6.90;99.90
2571;DHT22;1295;51.130;6.732;2023-12-20T13:58:49;6.90;99.90
2571;DHT22;1295;51.130;6.732;2023-12-20T14:01:15;6.90;99.90
2571;DHT22;1295;51.130;6.732;2023-12-20T14:03:40;7.00;99.90
2571;DHT22;1295;51.130;6.732;2023-12-20T14:06:06;7.00;99.90
2571;DHT22;1295;51.130;6.732;2023-12-20T14:08:32;7.00;99.90
2571;DHT22;1295;51.130;6.732;2023-12-20T14:10:58;7.00;99.90
2571;DHT22;1295;51.130;6.732;2023-12-20T14:13:24;7.00;99.90
2571;DHT22;1295;51.130;6.732;2023-12-20T14:15:50;7.00;99.90
2571;DHT22;1295;51.130;6.732;2023-12-20T14:18:16;7.00;99.90
2571;DHT22;1295;51.130;6.732;2023-12-20T14:20:41;7.00;99.90
2571;DHT22;1295;51.130;6.732;2023-12-20T14:23:07;7.00;99.90
2571;DHT22;1295;51.130;6.732;2023-12-20T14:25:32;7.00;99.90
2571;DHT22;1295;51.130;6.732;2023-12-20T14:27:58;7.00;99.90
2571;DHT22;1295;51.130;6.732;2023-12-20T14:30:24;7.00;99.90
2571;DHT22;1295;51.130;6.732;2023-12-20T14:32:49;7.00;99.90
2571;DHT22;1295;51.130;6.732;2023-12-20T14:35:15;7.00;99.90
2571;DHT22;1295;51.130;6.732;2023-12-20T14:37:41;7.00;99.90
2571;DHT22;1295;51.130;6.732;2023-12-20T14:40:07;7.00;99.90
2571;DHT22;1295;51.130;6.732;2023-12-20T14:42:33;7.00;99.90
2571;DHT22;1295;51.130;6.732;2023-12-20T14:44:58;7.00;99.90
2571;DHT22;1295;51.130;6.732;2023-12-20T14:47:24;7.10;99.90
2571;DHT22;1295;51.130;6.732;2023-12-20T14:49:50;7.10;99.90
2571;DHT22;1295;51.130;6.732;2023-12-20T14:52:17;7.00;99.90
2571;DHT22;1295;51.130;6.732;2023-12-20T14:54:41;7.10;99.90
2571;DHT22;1295;51.130;6.732;2023-12-20T14:57:06;7.10;99.90
2571;DHT22;1295;51.130;6.732;2023-12-20T14:59:32;7.10;99.90
2571;DHT22;1295;51.130;6.732;2023-12-20T15:01:58;7.10;99.90
2571;DHT22;1295;51.130;6.732;2023-12-20T15:04:23;7.10;99.90
2571;DHT22;1295;51.130;6.732;2023-12-20T15:06:49;7.10;99.90
2571;DHT22;1295;51.130;6.732;2023-12-20T15:09:15;7.10;99.90
2571;DHT22;1295;51.130;6.732;2023-12-20T15:11:41;7.10;99.90
2571;DHT22;1295;51.130;6.732;2023-12-20T15:14:07;7.10;99.90
2571;DHT22;1295;51.130;6.732;2023-12-20T15:16:33;7.20;99.90
2571;DHT22;1295;51.130;6.732;2023-12-20T15:18:58;7.10;99.90
2571;DHT22;1295;51.130;6.732;2023-12-20T15:21:24;7.10;99.90
2571;DHT22;1295;51.130;6.732;2023-12-20T15:23:50;7.10;99.90
2571;DHT22;1295;51.130;6.732;2023-12-20T15:26:19;7.10;99.90
2571;DHT22;1295;51.130;6.732;2023-12-20T15:28:44;7.10;99.90
2571;DHT22;1295;51.130;6.732;2023-12-20T15:31:10;7.10;99.90
2571;DHT22;1295;51.130;6.732;2023-12-20T15:33:36;7.10;99.90
2571;DHT22;1295;51.130;6.732;2023-12-20T15:36:02;7.10;99.90
2571;DHT22;1295;51.130;6.732;2023-12-20T15:38:28;7.20;99.90
2571;DHT22;1295;51.130;6.732;2023-12-20T15:40:54;7.20;99.90
2571;DHT22;1295;51.130;6.732;2023-12-20T15:43:20;7.20;99.90
2571;DHT22;1295;51.130;6.732;2023-12-20T15:45:46;7.20;99.90
2571;DHT22;1295;51.130;6.732;2023-12-20T15:48:12;7.20;99.90
2571;DHT22;1295;51.130;6.732;2023-12-20T15:50:38;7.10;99.90
2571;DHT22;1295;51.130;6.732;2023-12-20T15:53:04;7.20;99.90
2571;DHT22;1295;51.130;6.732;2023-12-20T15:55:29;7.20;99.90
2571;DHT22;1295;51.130;6.732;2023-12-20T15:57:55;7.20;99.90
2571;DHT22;1295;51.130;6.732;2023-12-20T16:00:21;7.10;99.90
2571;DHT22;1295;51.130;6.732;2023-12-20T16:02:47;7.10;99.90
2571;DHT22;1295;51.130;6.732;2023-12-20T16:05:13;7.10;99.90
2571;DHT22;1295;51.130;6.732;2023-12-20T16:07:38;7.10;99.90
2571;DHT22;1295;51.130;6.732;2023-12-20T16:10:05;7.10;99.90
2571;DHT22;1295;51.130;6.732;2023-12-20T16:12:30;7.20;99.90